sensor_id;sensor_type;location;lat;lon;timestamp;pressure;altitude;pressure_sealevel;temperature
55038;BMP280;40937;53.594;10.034;2023-11-19T00:00:06;101020.63;;;6.34
55038;BMP280;40937;53.594;10.034;2023-11-19T00:02:37;101016.59;;;6.31
55038;BMP280;40937;53.594;10.034;2023-11-19T00:05:05;101011.38;;;6.31
55038;BMP280;40937;53.594;10.034;2023-11-19T00:07:36;101010.56;;;6.31
55038;BMP280;40937;53.594;10.034;2023-11-19T00:10:08;101006.31;;;6.30
55038;BMP280;40937;53.594;10.034;2023-11-19T00:12:36;100985.59;;;6.35
55038;BMP280;40937;53.594;10.034;2023-11-19T00:15:05;100983.16;;;6.40
55038;BMP280;40937;53.594;10.034;2023-11-19T00:17:32;100971.50;;;6.36
55038;BMP280;40937;53.594;10.034;2023-11-19T00:19:59;100957.38;;;6.37
55038;BMP280;40937;53.594;10.034;2023-11-19T00:22:26;100958.19;;;6.37
55038;BMP280;40937;53.594;10.034;2023-11-19T00:24:55;100955.34;;;6.39
55038;BMP280;40937;53.594;10.034;2023-11-19T00:27:22;100950.34;;;6.44
55038;BMP280;40937;53.594;10.034;2023-11-19T00:29:49;100939.63;;;6.39
55038;BMP280;40937;53.594;10.034;2023-11-19T00:32:17;100933.78;;;6.37
55038;BMP280;40937;53.594;10.034;2023-11-19T00:34:44;100920.69;;;6.37
55038;BMP280;40937;53.594;10.034;2023-11-19T00:37:13;100919.88;;;6.43
55038;BMP280;40937;53.594;10.034;2023-11-19T00:39:41;100897.31;;;6.35
55038;BMP280;40937;53.594;10.034;2023-11-19T00:42:10;100897.31;;;6.42
55038;BMP280;40937;53.594;10.034;2023-11-19T00:44:38;100888.84;;;6.40
55038;BMP280;40937;53.594;10.034;2023-11-19T00:47:05;100879.97;;;6.41
55038;BMP280;40937;53.594;10.034;2023-11-19T00:49:33;100892.47;;;6.39
55038;BMP280;40937;53.594;10.034;2023-11-19T00:52:01;100890.66;;;6.39
55038;BMP280;40937;53.594;10.034;2023-11-19T00:54:28;100881.59;;;6.42
55038;BMP280;40937;53.594;10.034;2023-11-19T00:56:56;100876.75;;;6.39
55038;BMP280;40937;53.594;10.034;2023-11-19T00:59:24;100873.09;;;6.40
55038;BMP280;40937;53.594;10.034;2023-11-19T01:01:51;100860.00;;;6.40
55038;BMP280;40937;53.594;10.034;2023-11-19T01:04:18;100859.88;;;6.48
55038;BMP280;40937;53.594;10.034;2023-11-19T01:06:46;100843.28;;;6.41
55038;BMP280;40937;53.594;10.034;2023-11-19T01:09:13;100826.38;;;6.37
55038;BMP280;40937;53.594;10.034;2023-11-19T01:11:40;100825.38;;;6.38
55038;BMP280;40937;53.594;10.034;2023-11-19T01:14:08;100819.09;;;6.39
55038;BMP280;40937;53.594;10.034;2023-11-19T01:16:37;100825.94;;;6.40
55038;BMP280;40937;53.594;10.034;2023-11-19T01:19:04;100811.47;;;6.44
55038;BMP280;40937;53.594;10.034;2023-11-19T01:21:31;100799.34;;;6.43
55038;BMP280;40937;53.594;10.034;2023-11-19T01:23:58;100794.34;;;6.48
55038;BMP280;40937;53.594;10.034;2023-11-19T01:26:26;100790.88;;;6.41
55038;BMP280;40937;53.594;10.034;2023-11-19T01:28:53;100779.63;;;6.47
55038;BMP280;40937;53.594;10.034;2023-11-19T01:31:21;100771.16;;;6.45
55038;BMP280;40937;53.594;10.034;2023-11-19T01:33:49;100769.13;;;6.54
55038;BMP280;40937;53.594;10.034;2023-11-19T01:36:16;100765.13;;;6.51
55038;BMP280;40937;53.594;10.034;2023-11-19T01:38:43;100762.91;;;6.48
55038;BMP280;40937;53.594;10.034;2023-11-19T01:41:11;100748.19;;;6.47
55038;BMP280;40937;53.594;10.034;2023-11-19T01:43:39;100735.06;;;6.47
55038;BMP280;40937;53.594;10.034;2023-11-19T01:46:07;100724.19;;;6.50
55038;BMP280;40937;53.594;10.034;2023-11-19T01:48:39;100737.69;;;6.47
55038;BMP280;40937;53.594;10.034;2023-11-19T01:51:09;100729.25;;;6.45
55038;BMP280;40937;53.594;10.034;2023-11-19T01:53:36;100737.31;;;6.50
55038;BMP280;40937;53.594;10.034;2023-11-19T01:56:07;100735.06;;;6.47
55038;BMP280;40937;53.594;10.034;2023-11-19T01:58:35;100729.22;;;6.58
55038;BMP280;40937;53.594;10.034;2023-11-19T02:01:03;100712.91;;;6.56
55038;BMP280;40937;53.594;10.034;2023-11-19T02:03:31;100714.72;;;6.62
55038;BMP280;40937;53.594;10.034;2023-11-19T02:05:58;100699.00;;;6.56
55038;BMP280;40937;53.594;10.034;2023-11-19T02:08:27;100690.72;;;6.59
55038;BMP280;40937;53.594;10.034;2023-11-19T02:10:55;100694.94;;;6.53
55038;BMP280;40937;53.594;10.034;2023-11-19T02:13:24;100675.59;;;6.54
55038;BMP280;40937;53.594;10.034;2023-11-19T02:15:52;100675.22;;;6.57
55038;BMP280;40937;53.594;10.034;2023-11-19T02:18:20;100677.63;;;6.52
55038;BMP280;40937;53.594;10.034;2023-11-19T02:20:48;100677.19;;;6.55
55038;BMP280;40937;53.594;10.034;2023-11-19T02:23:17;100668.53;;;6.61
55038;BMP280;40937;53.594;10.034;2023-11-19T02:25:54;100657.47;;;6.59
55038;BMP280;40937;53.594;10.034;2023-11-19T02:28:25;100646.38;;;6.57
55038;BMP280;40937;53.594;10.034;2023-11-19T02:30:52;100643.34;;;6.60
55038;BMP280;40937;53.594;10.034;2023-11-19T02:33:20;100637.50;;;6.58
55038;BMP280;40937;53.594;10.034;2023-11-19T02:35:47;100628.44;;;6.54
55038;BMP280;40937;53.594;10.034;2023-11-19T02:38:14;100617.13;;;6.54
55038;BMP280;40937;53.594;10.034;2023-11-19T02:40:41;100616.94;;;6.55
55038;BMP280;40937;53.594;10.034;2023-11-19T02:43:08;100613.91;;;6.58
55038;BMP280;40937;53.594;10.034;2023-11-19T02:45:37;100609.88;;;6.62
55038;BMP280;40937;53.594;10.034;2023-11-19T02:48:04;100615.94;;;6.56
55038;BMP280;40937;53.594;10.034;2023-11-19T02:50:33;100607.84;;;6.64
55038;BMP280;40937;53.594;10.034;2023-11-19T02:53:01;100592.94;;;6.58
55038;BMP280;40937;53.594;10.034;2023-11-19T02:55:28;100578.84;;;6.59
55038;BMP280;40937;53.594;10.034;2023-11-19T02:58:00;100571.16;;;6.64
55038;BMP280;40937;53.594;10.034;2023-11-19T03:00:31;100572.19;;;6.63
55038;BMP280;40937;53.594;10.034;2023-11-19T03:03:04;100567.34;;;6.60
55038;BMP280;40937;53.594;10.034;2023-11-19T03:05:43;100561.72;;;6.63
55038;BMP280;40937;53.594;10.034;2023-11-19T03:08:12;100557.84;;;6.73
55038;BMP280;40937;53.594;10.034;2023-11-19T03:10:39;100547.75;;;6.76
55038;BMP280;40937;53.594;10.034;2023-11-19T03:13:11;100554.19;;;6.74
55038;BMP280;40937;53.594;10.034;2023-11-19T03:15:39;100545.94;;;6.70
55038;BMP280;40937;53.594;10.034;2023-11-19T03:18:08;100541.69;;;6.76
55038;BMP280;40937;53.594;10.034;2023-11-19T03:20:35;100530.78;;;6.79
55038;BMP280;40937;53.594;10.034;2023-11-19T03:23:02;100524.56;;;6.73
55038;BMP280;40937;53.594;10.034;2023-11-19T03:25:30;100519.53;;;6.72
55038;BMP280;40937;53.594;10.034;2023-11-19T03:28:01;100499.75;;;6.76
55038;BMP280;40937;53.594;10.034;2023-11-19T03:30:30;100505.75;;;6.83
55038;BMP280;40937;53.594;10.034;2023-11-19T03:32:59;100490.88;;;6.77
55038;BMP280;40937;53.594;10.034;2023-11-19T03:35:30;100483.00;;;6.77
55038;BMP280;40937;53.594;10.034;2023-11-19T03:38:01;100486.00;;;6.80
55038;BMP280;40937;53.594;10.034;2023-11-19T03:40:28;100480.09;;;6.85
55038;BMP280;40937;53.594;10.034;2023-11-19T03:42:56;100494.84;;;6.86
55038;BMP280;40937;53.594;10.034;2023-11-19T03:45:27;100497.63;;;6.91
55038;BMP280;40937;53.594;10.034;2023-11-19T03:47:54;100474.03;;;6.91
55038;BMP280;40937;53.594;10.034;2023-11-19T03:50:23;100481.31;;;6.89
55038;BMP280;40937;53.594;10.034;2023-11-19T03:52:53;100483.53;;;6.92
55038;BMP280;40937;53.594;10.034;2023-11-19T03:55:23;100475.41;;;6.94
55038;BMP280;40937;53.594;10.034;2023-11-19T03:57:50;100474.59;;;7.00
55038;BMP280;40937;53.594;10.034;2023-11-19T04:00:19;100472.19;;;6.98
55038;BMP280;40937;53.594;10.034;2023-11-19T04:02:50;100471.59;;;6.96
55038;BMP280;40937;53.594;10.034;2023-11-19T04:05:23;100472.97;;;6.99
55038;BMP280;40937;53.594;10.034;2023-11-19T04:07:50;100463.31;;;6.99
55038;BMP280;40937;53.594;10.034;2023-11-19T04:10:19;100460.84;;;7.04
55038;BMP280;40937;53.594;10.034;2023-11-19T04:12:51;100452.75;;;7.06
55038;BMP280;40937;53.594;10.034;2023-11-19T04:15:19;100453.13;;;7.10
55038;BMP280;40937;53.594;10.034;2023-11-19T04:17:46;100442.63;;;7.10
55038;BMP280;40937;53.594;10.034;2023-11-19T04:20:14;100440.22;;;7.15
55038;BMP280;40937;53.594;10.034;2023-11-19T04:22:41;100442.97;;;7.20
55038;BMP280;40937;53.594;10.034;2023-11-19T04:25:22;100435.69;;;7.22
55038;BMP280;40937;53.594;10.034;2023-11-19T04:27:52;100439.34;;;7.21
55038;BMP280;40937;53.594;10.034;2023-11-19T04:30:19;100428.63;;;7.22
55038;BMP280;40937;53.594;10.034;2023-11-19T04:32:49;100433.06;;;7.22
55038;BMP280;40937;53.594;10.034;2023-11-19T04:35:16;100429.44;;;7.23
55038;BMP280;40937;53.594;10.034;2023-11-19T04:37:45;100418.34;;;7.21
55038;BMP280;40937;53.594;10.034;2023-11-19T04:40:13;100424.03;;;7.18
55038;BMP280;40937;53.594;10.034;2023-11-19T04:42:42;100414.13;;;7.20
55038;BMP280;40937;53.594;10.034;2023-11-19T04:45:09;100410.91;;;7.18
55038;BMP280;40937;53.594;10.034;2023-11-19T04:47:39;100409.06;;;7.18
55038;BMP280;40937;53.594;10.034;2023-11-19T04:50:06;100411.50;;;7.20
55038;BMP280;40937;53.594;10.034;2023-11-19T04:52:37;100406.56;;;7.30
55038;BMP280;40937;53.594;10.034;2023-11-19T04:55:06;100414.44;;;7.30
55038;BMP280;40937;53.594;10.034;2023-11-19T04:57:37;100413.41;;;7.31
55038;BMP280;40937;53.594;10.034;2023-11-19T05:00:07;100404.53;;;7.32
55038;BMP280;40937;53.594;10.034;2023-11-19T05:02:35;100407.81;;;7.28
55038;BMP280;40937;53.594;10.034;2023-11-19T05:05:03;100401.69;;;7.34
55038;BMP280;40937;53.594;10.034;2023-11-19T05:07:31;100402.06;;;7.37
55038;BMP280;40937;53.594;10.034;2023-11-19T05:09:58;100396.38;;;7.40
55038;BMP280;40937;53.594;10.034;2023-11-19T05:12:26;100389.53;;;7.39
55038;BMP280;40937;53.594;10.034;2023-11-19T05:14:53;100391.34;;;7.39
55038;BMP280;40937;53.594;10.034;2023-11-19T05:17:21;100389.06;;;7.42
55038;BMP280;40937;53.594;10.034;2023-11-19T05:19:48;100378.66;;;7.36
55038;BMP280;40937;53.594;10.034;2023-11-19T05:22:16;100379.91;;;7.33
55038;BMP280;40937;53.594;10.034;2023-11-19T05:24:43;100371.38;;;7.38
55038;BMP280;40937;53.594;10.034;2023-11-19T05:27:10;100376.41;;;7.39
55038;BMP280;40937;53.594;10.034;2023-11-19T05:29:39;100371.16;;;7.39
55038;BMP280;40937;53.594;10.034;2023-11-19T05:32:07;100367.75;;;7.39
55038;BMP280;40937;53.594;10.034;2023-11-19T05:34:35;100363.28;;;7.39
55038;BMP280;40937;53.594;10.034;2023-11-19T05:37:03;100362.03;;;7.42
55038;BMP280;40937;53.594;10.034;2023-11-19T05:39:31;100363.44;;;7.45
55038;BMP280;40937;53.594;10.034;2023-11-19T05:41:59;100361.97;;;7.49
55038;BMP280;40937;53.594;10.034;2023-11-19T05:44:26;100368.84;;;7.50
55038;BMP280;40937;53.594;10.034;2023-11-19T05:46:53;100359.97;;;7.51
55038;BMP280;40937;53.594;10.034;2023-11-19T05:49:20;100362.72;;;7.56
55038;BMP280;40937;53.594;10.034;2023-11-19T05:51:49;100357.25;;;7.57
55038;BMP280;40937;53.594;10.034;2023-11-19T05:54:17;100352.50;;;7.66
55038;BMP280;40937;53.594;10.034;2023-11-19T05:56:47;100354.09;;;7.86
55038;BMP280;40937;53.594;10.034;2023-11-19T05:59:15;100360.59;;;7.83
55038;BMP280;40937;53.594;10.034;2023-11-19T06:01:44;100347.69;;;7.82
55038;BMP280;40937;53.594;10.034;2023-11-19T06:04:11;100359.78;;;7.83
55038;BMP280;40937;53.594;10.034;2023-11-19T06:06:38;100354.09;;;7.86
55038;BMP280;40937;53.594;10.034;2023-11-19T06:09:07;100358.34;;;7.87
55038;BMP280;40937;53.594;10.034;2023-11-19T06:11:35;100354.22;;;7.91
55038;BMP280;40937;53.594;10.034;2023-11-19T06:14:02;100349.56;;;7.93
55038;BMP280;40937;53.594;10.034;2023-11-19T06:16:31;100343.34;;;8.06
55038;BMP280;40937;53.594;10.034;2023-11-19T06:18:59;100345.41;;;8.15
55038;BMP280;40937;53.594;10.034;2023-11-19T06:21:26;100353.56;;;8.26
55038;BMP280;40937;53.594;10.034;2023-11-19T06:23:53;100359.09;;;8.36
55038;BMP280;40937;53.594;10.034;2023-11-19T06:26:22;100360.94;;;8.47
55038;BMP280;40937;53.594;10.034;2023-11-19T06:28:49;100357.53;;;8.58
55038;BMP280;40937;53.594;10.034;2023-11-19T06:31:16;100356.97;;;8.68
55038;BMP280;40937;53.594;10.034;2023-11-19T06:33:44;100352.19;;;8.77
55038;BMP280;40937;53.594;10.034;2023-11-19T06:36:14;100353.22;;;8.88
55038;BMP280;40937;53.594;10.034;2023-11-19T06:38:42;100357.91;;;8.98
55038;BMP280;40937;53.594;10.034;2023-11-19T06:41:09;100357.31;;;9.07
55038;BMP280;40937;53.594;10.034;2023-11-19T06:43:38;100351.28;;;9.19
55038;BMP280;40937;53.594;10.034;2023-11-19T06:46:05;100350.56;;;9.23
55038;BMP280;40937;53.594;10.034;2023-11-19T06:48:32;100360.78;;;9.31
55038;BMP280;40937;53.594;10.034;2023-11-19T06:51:00;100349.88;;;9.40
55038;BMP280;40937;53.594;10.034;2023-11-19T06:53:27;100349.75;;;9.46
55038;BMP280;40937;53.594;10.034;2023-11-19T06:55:55;100351.66;;;9.51
55038;BMP280;40937;53.594;10.034;2023-11-19T06:58:22;100343.66;;;9.58
55038;BMP280;40937;53.594;10.034;2023-11-19T07:00:51;100351.88;;;9.61
55038;BMP280;40937;53.594;10.034;2023-11-19T07:03:23;100366.19;;;9.65
55038;BMP280;40937;53.594;10.034;2023-11-19T07:05:51;100364.19;;;9.72
55038;BMP280;40937;53.594;10.034;2023-11-19T07:08:18;100361.69;;;9.78
55038;BMP280;40937;53.594;10.034;2023-11-19T07:10:45;100360.75;;;9.84
55038;BMP280;40937;53.594;10.034;2023-11-19T07:13:13;100352.13;;;9.88
55038;BMP280;40937;53.594;10.034;2023-11-19T07:15:40;100358.53;;;9.92
55038;BMP280;40937;53.594;10.034;2023-11-19T07:18:09;100363.91;;;9.98
55038;BMP280;40937;53.594;10.034;2023-11-19T07:20:37;100370.06;;;10.03
55038;BMP280;40937;53.594;10.034;2023-11-19T07:23:05;100366.94;;;10.06
55038;BMP280;40937;53.594;10.034;2023-11-19T07:25:33;100363.84;;;10.09
55038;BMP280;40937;53.594;10.034;2023-11-19T07:28:01;100375.53;;;10.13
55038;BMP280;40937;53.594;10.034;2023-11-19T07:30:30;100368.94;;;10.16
55038;BMP280;40937;53.594;10.034;2023-11-19T07:32:57;100363.53;;;10.23
55038;BMP280;40937;53.594;10.034;2023-11-19T07:35:26;100362.25;;;10.25
55038;BMP280;40937;53.594;10.034;2023-11-19T07:37:56;100376.34;;;10.31
55038;BMP280;40937;53.594;10.034;2023-11-19T07:40:23;100372.66;;;10.32
55038;BMP280;40937;53.594;10.034;2023-11-19T07:42:51;100375.78;;;10.29
55038;BMP280;40937;53.594;10.034;2023-11-19T07:45:18;100369.09;;;10.38
55038;BMP280;40937;53.594;10.034;2023-11-19T07:47:45;100378.09;;;10.42
55038;BMP280;40937;53.594;10.034;2023-11-19T07:50:12;100387.63;;;10.43
55038;BMP280;40937;53.594;10.034;2023-11-19T07:52:44;100381.31;;;10.44
55038;BMP280;40937;53.594;10.034;2023-11-19T07:55:11;100384.50;;;10.46
55038;BMP280;40937;53.594;10.034;2023-11-19T07:57:38;100384.81;;;10.50
55038;BMP280;40937;53.594;10.034;2023-11-19T08:00:09;100396.41;;;10.49
55038;BMP280;40937;53.594;10.034;2023-11-19T08:02:40;100399.38;;;10.52
55038;BMP280;40937;53.594;10.034;2023-11-19T08:05:08;100398.09;;;10.55
55038;BMP280;40937;53.594;10.034;2023-11-19T08:07:35;100398.59;;;10.52
55038;BMP280;40937;53.594;10.034;2023-11-19T08:10:04;100402.06;;;10.58
55038;BMP280;40937;53.594;10.034;2023-11-19T08:12:36;100399.53;;;10.63
55038;BMP280;40937;53.594;10.034;2023-11-19T08:15:04;100402.72;;;10.65
55038;BMP280;40937;53.594;10.034;2023-11-19T08:17:31;100412.47;;;10.64
55038;BMP280;40937;53.594;10.034;2023-11-19T08:19:58;100398.09;;;10.72
55038;BMP280;40937;53.594;10.034;2023-11-19T08:22:26;100404.19;;;10.73
55038;BMP280;40937;53.594;10.034;2023-11-19T08:24:53;100409.75;;;10.76
55038;BMP280;40937;53.594;10.034;2023-11-19T08:27:22;100415.59;;;10.78
55038;BMP280;40937;53.594;10.034;2023-11-19T08:29:53;100415.34;;;10.80
55038;BMP280;40937;53.594;10.034;2023-11-19T08:32:21;100407.44;;;10.80
55038;BMP280;40937;53.594;10.034;2023-11-19T08:34:48;100410.41;;;10.83
55038;BMP280;40937;53.594;10.034;2023-11-19T08:37:16;100427.81;;;10.84
55038;BMP280;40937;53.594;10.034;2023-11-19T08:39:43;100425.75;;;10.86
55038;BMP280;40937;53.594;10.034;2023-11-19T08:42:12;100428.97;;;10.88
55038;BMP280;40937;53.594;10.034;2023-11-19T08:44:40;100431.03;;;10.86
55038;BMP280;40937;53.594;10.034;2023-11-19T08:47:09;100429.47;;;10.90
55038;BMP280;40937;53.594;10.034;2023-11-19T08:49:36;100421.91;;;10.94
55038;BMP280;40937;53.594;10.034;2023-11-19T08:52:05;100430.16;;;10.98
55038;BMP280;40937;53.594;10.034;2023-11-19T08:54:33;100430.06;;;10.93
55038;BMP280;40937;53.594;10.034;2023-11-19T08:57:00;100427.53;;;10.98
55038;BMP280;40937;53.594;10.034;2023-11-19T08:59:28;100436.47;;;10.97
55038;BMP280;40937;53.594;10.034;2023-11-19T09:01:57;100433.09;;;11.01
55038;BMP280;40937;53.594;10.034;2023-11-19T09:04:24;100436.47;;;10.97
55038;BMP280;40937;53.594;10.034;2023-11-19T09:06:51;100440.22;;;11.01
55038;BMP280;40937;53.594;10.034;2023-11-19T09:09:18;100447.97;;;11.07
55038;BMP280;40937;53.594;10.034;2023-11-19T09:11:46;100445.06;;;11.09
55038;BMP280;40937;53.594;10.034;2023-11-19T09:14:13;100457.00;;;11.11
55038;BMP280;40937;53.594;10.034;2023-11-19T09:16:40;100453.88;;;11.15
55038;BMP280;40937;53.594;10.034;2023-11-19T09:19:08;100449.16;;;11.17
55038;BMP280;40937;53.594;10.034;2023-11-19T09:21:36;100453.72;;;11.21
55038;BMP280;40937;53.594;10.034;2023-11-19T09:24:04;100457.00;;;11.28
55038;BMP280;40937;53.594;10.034;2023-11-19T09:26:33;100453.84;;;11.31
55038;BMP280;40937;53.594;10.034;2023-11-19T09:29:02;100460.72;;;11.32
55038;BMP280;40937;53.594;10.034;2023-11-19T09:31:29;100449.38;;;11.32
55038;BMP280;40937;53.594;10.034;2023-11-19T09:33:56;100462.56;;;11.32
55038;BMP280;40937;53.594;10.034;2023-11-19T09:36:24;100456.56;;;11.37
55038;BMP280;40937;53.594;10.034;2023-11-19T09:38:52;100454.97;;;11.36
55038;BMP280;40937;53.594;10.034;2023-11-19T09:41:19;100458.94;;;11.38
55038;BMP280;40937;53.594;10.034;2023-11-19T09:43:46;100455.03;;;11.41
55038;BMP280;40937;53.594;10.034;2023-11-19T09:46:15;100457.44;;;11.42
55038;BMP280;40937;53.594;10.034;2023-11-19T09:48:44;100456.88;;;11.40
55038;BMP280;40937;53.594;10.034;2023-11-19T09:51:14;100454.47;;;11.39
55038;BMP280;40937;53.594;10.034;2023-11-19T09:53:42;100459.59;;;11.45
55038;BMP280;40937;53.594;10.034;2023-11-19T09:56:10;100453.59;;;11.50
55038;BMP280;40937;53.594;10.034;2023-11-19T09:58:38;100453.06;;;11.53
55038;BMP280;40937;53.594;10.034;2023-11-19T10:01:06;100453.41;;;11.57
55038;BMP280;40937;53.594;10.034;2023-11-19T10:03:36;100454.22;;;11.62
55038;BMP280;40937;53.594;10.034;2023-11-19T10:06:06;100442.16;;;11.66
55038;BMP280;40937;53.594;10.034;2023-11-19T10:08:37;100444.78;;;11.66
55038;BMP280;40937;53.594;10.034;2023-11-19T10:11:06;100442.09;;;11.61
55038;BMP280;40937;53.594;10.034;2023-11-19T10:13:35;100446.53;;;11.61
55038;BMP280;40937;53.594;10.034;2023-11-19T10:16:04;100443.19;;;11.65
55038;BMP280;40937;53.594;10.034;2023-11-19T10:18:34;100446.88;;;11.64
55038;BMP280;40937;53.594;10.034;2023-11-19T10:21:04;100448.94;;;11.62
55038;BMP280;40937;53.594;10.034;2023-11-19T10:23:48;100451.06;;;11.60
55038;BMP280;40937;53.594;10.034;2023-11-19T10:26:17;100462.38;;;11.61
55038;BMP280;40937;53.594;10.034;2023-11-19T10:28:46;100462.09;;;11.57
55038;BMP280;40937;53.594;10.034;2023-11-19T10:31:14;100464.00;;;11.62
55038;BMP280;40937;53.594;10.034;2023-11-19T10:33:41;100463.75;;;11.63
55038;BMP280;40937;53.594;10.034;2023-11-19T10:36:11;100461.00;;;11.53
55038;BMP280;40937;53.594;10.034;2023-11-19T10:38:51;100463.81;;;11.46
55038;BMP280;40937;53.594;10.034;2023-11-19T10:41:27;100472.44;;;11.81
55038;BMP280;40937;53.594;10.034;2023-11-19T10:43:55;100458.50;;;12.13
55038;BMP280;40937;53.594;10.034;2023-11-19T10:46:22;100468.31;;;12.39
55038;BMP280;40937;53.594;10.034;2023-11-19T10:48:49;100465.81;;;12.55
55038;BMP280;40937;53.594;10.034;2023-11-19T10:51:19;100456.16;;;12.76
55038;BMP280;40937;53.594;10.034;2023-11-19T10:53:49;100460.25;;;12.88
55038;BMP280;40937;53.594;10.034;2023-11-19T10:56:20;100458.34;;;12.84
55038;BMP280;40937;53.594;10.034;2023-11-19T10:58:52;100453.34;;;12.93
55038;BMP280;40937;53.594;10.034;2023-11-19T11:01:23;100465.00;;;12.92
55038;BMP280;40937;53.594;10.034;2023-11-19T11:03:53;100463.50;;;13.01
55038;BMP280;40937;53.594;10.034;2023-11-19T11:06:23;100464.53;;;13.05
55038;BMP280;40937;53.594;10.034;2023-11-19T11:08:51;100468.31;;;13.14
55038;BMP280;40937;53.594;10.034;2023-11-19T11:11:18;100463.13;;;13.35
55038;BMP280;40937;53.594;10.034;2023-11-19T11:13:47;100467.97;;;13.53
55038;BMP280;40937;53.594;10.034;2023-11-19T11:16:18;100458.50;;;13.67
55038;BMP280;40937;53.594;10.034;2023-11-19T11:18:46;100471.28;;;13.81
55038;BMP280;40937;53.594;10.034;2023-11-19T11:21:17;100461.22;;;13.88
55038;BMP280;40937;53.594;10.034;2023-11-19T11:24:04;100461.19;;;13.78
55038;BMP280;40937;53.594;10.034;2023-11-19T11:27:01;100463.78;;;13.62
55038;BMP280;40937;53.594;10.034;2023-11-19T11:29:34;100465.25;;;13.33
55038;BMP280;40937;53.594;10.034;2023-11-19T11:32:11;100461.47;;;13.18
55038;BMP280;40937;53.594;10.034;2023-11-19T11:34:56;100466.75;;;13.13
55038;BMP280;40937;53.594;10.034;2023-11-19T11:37:32;100465.56;;;12.94
55038;BMP280;40937;53.594;10.034;2023-11-19T11:40:00;100458.03;;;12.80
55038;BMP280;40937;53.594;10.034;2023-11-19T11:42:34;100465.84;;;12.65
55038;BMP280;40937;53.594;10.034;2023-11-19T11:45:03;100478.66;;;12.46
55038;BMP280;40937;53.594;10.034;2023-11-19T11:48:07;100481.53;;;12.39
55038;BMP280;40937;53.594;10.034;2023-11-19T11:50:50;100482.03;;;12.41
55038;BMP280;40937;53.594;10.034;2023-11-19T11:53:18;100484.44;;;12.43
55038;BMP280;40937;53.594;10.034;2023-11-19T11:55:55;100475.09;;;12.35
55038;BMP280;40937;53.594;10.034;2023-11-19T11:58:32;100470.91;;;12.34
55038;BMP280;40937;53.594;10.034;2023-11-19T12:01:01;100475.09;;;12.30
55038;BMP280;40937;53.594;10.034;2023-11-19T12:03:31;100475.06;;;12.25
55038;BMP280;40937;53.594;10.034;2023-11-19T12:05:58;100466.00;;;12.21
55038;BMP280;40937;53.594;10.034;2023-11-19T12:08:27;100470.78;;;12.24
55038;BMP280;40937;53.594;10.034;2023-11-19T12:10:56;100466.06;;;12.26
55038;BMP280;40937;53.594;10.034;2023-11-19T12:13:42;100468.53;;;12.10
55038;BMP280;40937;53.594;10.034;2023-11-19T12:16:11;100462.69;;;12.08
55038;BMP280;40937;53.594;10.034;2023-11-19T12:18:40;100466.91;;;12.04
55038;BMP280;40937;53.594;10.034;2023-11-19T12:21:08;100467.94;;;12.03
55038;BMP280;40937;53.594;10.034;2023-11-19T12:23:45;100453.22;;;12.13
55038;BMP280;40937;53.594;10.034;2023-11-19T12:26:39;100462.81;;;12.19
55038;BMP280;40937;53.594;10.034;2023-11-19T12:29:06;100456.66;;;12.13
55038;BMP280;40937;53.594;10.034;2023-11-19T12:31:34;100461.22;;;12.18
55038;BMP280;40937;53.594;10.034;2023-11-19T12:34:09;100458.50;;;12.13
55038;BMP280;40937;53.594;10.034;2023-11-19T12:36:40;100456.41;;;12.15
55038;BMP280;40937;53.594;10.034;2023-11-19T12:39:07;100452.72;;;12.16
55038;BMP280;40937;53.594;10.034;2023-11-19T12:41:49;100460.59;;;12.10
55038;BMP280;40937;53.594;10.034;2023-11-19T12:44:16;100460.53;;;12.05
55038;BMP280;40937;53.594;10.034;2023-11-19T12:46:44;100470.59;;;12.03
55038;BMP280;40937;53.594;10.034;2023-11-19T12:49:12;100471.13;;;12.05
55038;BMP280;40937;53.594;10.034;2023-11-19T12:51:39;100470.03;;;12.01
55038;BMP280;40937;53.594;10.034;2023-11-19T12:54:07;100461.53;;;11.99
55038;BMP280;40937;53.594;10.034;2023-11-19T12:56:34;100455.22;;;12.00
55038;BMP280;40937;53.594;10.034;2023-11-19T12:59:10;100462.66;;;12.03
55038;BMP280;40937;53.594;10.034;2023-11-19T13:01:38;100460.53;;;12.05
55038;BMP280;40937;53.594;10.034;2023-11-19T13:04:18;100458.47;;;12.07
55038;BMP280;40937;53.594;10.034;2023-11-19T13:06:45;100448.94;;;12.06
55038;BMP280;40937;53.594;10.034;2023-11-19T13:09:21;100452.66;;;12.10
55038;BMP280;40937;53.594;10.034;2023-11-19T13:11:49;100455.31;;;12.10
55038;BMP280;40937;53.594;10.034;2023-11-19T13:14:16;100456.13;;;12.11
55038;BMP280;40937;53.594;10.034;2023-11-19T13:16:44;100457.72;;;12.12
55038;BMP280;40937;53.594;10.034;2023-11-19T13:19:12;100455.31;;;12.10
55038;BMP280;40937;53.594;10.034;2023-11-19T13:21:41;100444.22;;;12.14
55038;BMP280;40937;53.594;10.034;2023-11-19T13:24:10;100446.88;;;12.14
55038;BMP280;40937;53.594;10.034;2023-11-19T13:26:38;100445.56;;;12.11
55038;BMP280;40937;53.594;10.034;2023-11-19T13:29:06;100443.75;;;12.17
55038;BMP280;40937;53.594;10.034;2023-11-19T13:31:33;100447.44;;;12.16
55038;BMP280;40937;53.594;10.034;2023-11-19T13:34:00;100440.53;;;12.15
55038;BMP280;40937;53.594;10.034;2023-11-19T13:36:27;100435.22;;;12.09
55038;BMP280;40937;53.594;10.034;2023-11-19T13:38:56;100439.16;;;12.07
55038;BMP280;40937;53.594;10.034;2023-11-19T13:41:25;100432.59;;;12.09
55038;BMP280;40937;53.594;10.034;2023-11-19T13:43:52;100437.06;;;12.09
55038;BMP280;40937;53.594;10.034;2023-11-19T13:46:19;100431.22;;;12.07
55038;BMP280;40937;53.594;10.034;2023-11-19T13:48:47;100435.69;;;12.01
55038;BMP280;40937;53.594;10.034;2023-11-19T13:51:15;100435.69;;;12.01
55038;BMP280;40937;53.594;10.034;2023-11-19T13:53:42;100436.22;;;12.03
55038;BMP280;40937;53.594;10.034;2023-11-19T13:56:13;100439.34;;;12.00
55038;BMP280;40937;53.594;10.034;2023-11-19T13:58:40;100434.84;;;12.01
55038;BMP280;40937;53.594;10.034;2023-11-19T14:01:07;100428.78;;;12.00